createdAt,value
2018-12-14T00:00:27.709Z,4.40
2018-12-14T00:02:55.782Z,4.40
2018-12-14T00:05:23.850Z,4.50
2018-12-14T00:07:51.946Z,4.50
2018-12-14T00:10:20.114Z,4.50
2018-12-14T00:12:48.205Z,4.40
2018-12-14T00:15:16.285Z,4.40
2018-12-14T00:17:44.396Z,4.40
2018-12-14T00:20:12.531Z,4.40
2018-12-14T00:22:40.623Z,4.50
2018-12-14T00:25:08.721Z,4.50
2018-12-14T00:27:36.871Z,4.50
2018-12-14T00:30:05.330Z,4.50
2018-12-14T00:32:33.470Z,4.40
2018-12-14T00:35:01.565Z,4.40
2018-12-14T00:37:29.627Z,4.40
2018-12-14T00:39:57.713Z,4.40
2018-12-14T00:42:25.786Z,4.30
2018-12-14T00:44:53.862Z,4.30
2018-12-14T00:47:21.948Z,4.30
2018-12-14T00:49:50.014Z,4.30
2018-12-14T00:52:18.086Z,4.40
2018-12-14T00:54:46.163Z,4.40
2018-12-14T00:57:14.239Z,4.50
2018-12-14T00:59:42.311Z,4.60
2018-12-14T01:02:12.446Z,4.60
2018-12-14T01:04:40.539Z,4.70
2018-12-14T01:07:08.628Z,4.70
2018-12-14T01:09:36.711Z,4.70
2018-12-14T01:12:04.855Z,4.80
2018-12-14T01:14:32.946Z,4.80
2018-12-14T01:17:01.016Z,4.80
2018-12-14T01:19:29.082Z,4.70
2018-12-14T01:21:57.176Z,4.70
2018-12-14T01:24:25.230Z,4.70
2018-12-14T01:26:53.338Z,4.60
2018-12-14T01:29:21.402Z,4.50
2018-12-14T01:31:49.498Z,4.50
2018-12-14T01:34:17.570Z,4.50
2018-12-14T01:36:45.637Z,4.50
2018-12-14T01:39:13.864Z,4.50
2018-12-14T01:41:42.634Z,4.50
2018-12-14T01:44:10.794Z,4.50
2018-12-14T01:46:38.826Z,4.50
2018-12-14T01:49:06.914Z,4.50
2018-12-14T01:51:34.994Z,4.60
2018-12-14T01:54:03.078Z,4.60
2018-12-14T01:56:31.155Z,4.60
2018-12-14T01:58:59.254Z,4.50
2018-12-14T02:01:27.357Z,4.50
2018-12-14T02:03:55.440Z,4.40
2018-12-14T02:06:23.511Z,4.40
2018-12-14T02:08:51.590Z,4.40
2018-12-14T02:11:19.669Z,4.30
2018-12-14T02:13:47.766Z,4.30
2018-12-14T02:16:15.919Z,4.30
2018-12-14T02:18:44.007Z,4.20
2018-12-14T02:21:12.114Z,4.30
2018-12-14T02:23:40.194Z,4.30
2018-12-14T02:26:08.278Z,4.30
2018-12-14T02:28:36.366Z,4.30
2018-12-14T02:31:04.457Z,4.40
2018-12-14T02:33:32.570Z,4.50
2018-12-14T02:36:00.775Z,4.40
2018-12-14T02:38:28.870Z,4.40
2018-12-14T02:40:56.950Z,4.40
2018-12-14T02:43:25.403Z,4.40
2018-12-14T02:45:53.496Z,4.30
2018-12-14T02:48:21.571Z,4.30
2018-12-14T02:50:49.634Z,4.30
2018-12-14T02:53:17.734Z,4.40
2018-12-14T02:55:45.822Z,4.40
2018-12-14T02:58:13.903Z,4.40
2018-12-14T03:00:41.993Z,4.40
2018-12-14T03:03:10.067Z,4.50
2018-12-14T03:05:38.132Z,4.50
2018-12-14T03:08:06.222Z,4.50
2018-12-14T03:10:34.286Z,4.40
2018-12-14T03:13:02.416Z,4.40
2018-12-14T03:15:30.495Z,4.50
2018-12-14T03:17:58.576Z,4.40
2018-12-14T03:20:26.654Z,4.40
2018-12-14T03:22:54.725Z,4.40
2018-12-14T03:25:22.827Z,4.30
2018-12-14T03:27:50.967Z,4.30
2018-12-14T03:30:19.057Z,4.20
2018-12-14T03:32:47.144Z,4.20
2018-12-14T03:35:15.233Z,4.20
2018-12-14T03:37:43.314Z,4.10
2018-12-14T03:40:15.207Z,4.10
2018-12-14T03:42:43.285Z,4.10
2018-12-14T03:45:11.446Z,4.10
2018-12-14T03:47:39.545Z,4.10
2018-12-14T03:50:07.795Z,4.10
2018-12-14T03:52:35.982Z,4.10
2018-12-14T03:55:04.708Z,4.10
2018-12-14T03:57:32.767Z,4.10
2018-12-14T04:00:00.860Z,4.10
2018-12-14T04:02:28.925Z,4.20
2018-12-14T04:04:56.980Z,4.20
2018-12-14T04:07:25.142Z,4.10
2018-12-14T04:09:53.166Z,4.10
2018-12-14T04:12:21.261Z,4.20
2018-12-14T04:14:49.337Z,4.20
2018-12-14T04:17:17.411Z,4.20
2018-12-14T04:19:45.495Z,4.20
2018-12-14T04:22:13.565Z,4.10
2018-12-14T04:24:41.647Z,4.10
2018-12-14T04:27:09.710Z,4.10
2018-12-14T04:29:37.803Z,4.10
2018-12-14T04:32:05.889Z,4.20
2018-12-14T04:34:34.214Z,4.30
2018-12-14T04:37:02.307Z,4.20
2018-12-14T04:39:31.257Z,4.20
2018-12-14T04:41:59.527Z,4.10
2018-12-14T04:44:27.606Z,4.20
2018-12-14T04:46:56.095Z,4.20
2018-12-14T04:49:24.451Z,4.20
2018-12-14T04:51:52.549Z,4.20
2018-12-14T04:54:20.638Z,4.20
2018-12-14T04:56:48.747Z,4.20
2018-12-14T04:59:16.822Z,4.10
2018-12-14T05:01:44.893Z,4.20
2018-12-14T05:04:12.986Z,4.20
2018-12-14T05:06:41.051Z,4.10
2018-12-14T05:09:09.321Z,4.10
2018-12-14T05:11:37.475Z,4.00
2018-12-14T05:14:05.655Z,4.00
2018-12-14T05:16:33.712Z,3.80
2018-12-14T05:19:01.792Z,3.70
2018-12-14T05:21:29.882Z,3.80
2018-12-14T05:24:01.683Z,3.90
2018-12-14T05:26:29.767Z,3.90
2018-12-14T05:28:57.862Z,4.00
2018-12-14T05:31:25.960Z,4.00
2018-12-14T05:33:54.014Z,4.00
2018-12-14T05:36:22.103Z,4.10
2018-12-14T05:38:50.168Z,4.20
2018-12-14T05:41:18.248Z,4.20
2018-12-14T05:43:46.333Z,4.30
2018-12-14T05:46:14.434Z,4.20
2018-12-14T05:48:42.533Z,4.20
2018-12-14T05:51:10.621Z,4.20
2018-12-14T05:53:38.696Z,4.10
2018-12-14T05:56:06.767Z,4.10
2018-12-14T05:58:34.882Z,4.20
2018-12-14T06:01:03.231Z,4.10
2018-12-14T06:03:31.379Z,4.10
2018-12-14T06:06:00.425Z,4.10
2018-12-14T06:08:28.511Z,4.10
2018-12-14T06:10:56.845Z,4.10
2018-12-14T06:13:24.907Z,4.10
2018-12-14T06:15:53.011Z,4.10
2018-12-14T06:18:21.103Z,4.10
2018-12-14T06:20:49.248Z,4.00
2018-12-14T06:23:17.334Z,4.00
2018-12-14T06:25:45.490Z,4.10
2018-12-14T06:28:13.517Z,4.10
2018-12-14T06:30:41.602Z,4.10
2018-12-14T06:33:09.683Z,4.10
2018-12-14T06:35:37.773Z,4.20
2018-12-14T06:38:05.834Z,4.20
2018-12-14T06:40:33.911Z,4.20
2018-12-14T06:43:01.999Z,4.20
2018-12-14T06:45:30.066Z,4.20
2018-12-14T06:47:58.167Z,4.20
2018-12-14T06:50:28.030Z,4.30
2018-12-14T06:52:56.606Z,4.10
2018-12-14T06:55:24.699Z,4.10
2018-12-14T06:57:52.745Z,4.10
2018-12-14T07:00:20.805Z,4.10
2018-12-14T07:02:48.897Z,4.00
2018-12-14T07:05:16.990Z,4.10
2018-12-14T07:07:45.074Z,4.10
2018-12-14T07:10:13.158Z,4.20
2018-12-14T07:12:41.223Z,4.20
2018-12-14T07:15:09.311Z,4.30
2018-12-14T07:17:37.391Z,4.30
2018-12-14T07:20:06.341Z,4.30
2018-12-14T07:22:34.451Z,4.30
2018-12-14T07:25:02.524Z,4.20
2018-12-14T07:27:30.567Z,4.20
2018-12-14T07:29:58.726Z,4.20
2018-12-14T07:32:28.834Z,4.30
2018-12-14T07:34:56.906Z,4.30
2018-12-14T07:37:24.986Z,4.20
2018-12-14T07:39:53.050Z,4.30
2018-12-14T07:42:21.134Z,4.30
2018-12-14T07:44:49.302Z,4.30
2018-12-14T07:47:17.605Z,4.30
2018-12-14T07:49:45.701Z,4.30
2018-12-14T07:52:13.770Z,4.30
2018-12-14T07:54:43.175Z,4.20
2018-12-14T07:57:11.245Z,4.20
2018-12-14T07:59:39.395Z,4.20
2018-12-14T08:02:07.468Z,4.10
2018-12-14T08:04:35.792Z,4.10
2018-12-14T08:07:03.902Z,4.10
2018-12-14T08:09:32.075Z,4.20
2018-12-14T08:12:00.742Z,4.10
2018-12-14T08:14:28.791Z,4.10
2018-12-14T08:16:56.889Z,4.10
2018-12-14T08:19:24.975Z,4.10
2018-12-14T08:21:53.039Z,4.20
2018-12-14T08:24:21.118Z,4.20
2018-12-14T08:26:49.191Z,4.20
2018-12-14T08:29:17.291Z,4.10
2018-12-14T08:31:45.338Z,4.10
2018-12-14T08:34:12.930Z,4.10
2018-12-14T08:36:41.127Z,4.00
2018-12-14T08:39:09.209Z,4.00
2018-12-14T08:41:37.980Z,4.00
2018-12-14T08:44:06.196Z,4.10
2018-12-14T08:46:34.289Z,4.20
2018-12-14T08:49:02.374Z,4.20
2018-12-14T08:51:30.446Z,4.20
2018-12-14T08:53:58.538Z,4.20
2018-12-14T08:56:26.754Z,4.10
2018-12-14T08:58:54.825Z,4.10
2018-12-14T09:01:22.915Z,4.10
2018-12-14T09:03:51.024Z,4.10
2018-12-14T09:06:19.096Z,4.10
2018-12-14T09:08:47.208Z,4.10
2018-12-14T09:11:15.298Z,4.00
2018-12-14T09:13:47.924Z,4.10
2018-12-14T09:16:13.967Z,4.20
2018-12-14T09:18:42.047Z,4.20
2018-12-14T09:21:10.147Z,4.20
2018-12-14T09:23:38.254Z,4.20
2018-12-14T09:26:06.414Z,4.20
2018-12-14T09:28:34.591Z,4.30
2018-12-14T09:31:02.687Z,4.30
2018-12-14T09:33:31.266Z,4.30
2018-12-14T09:35:59.364Z,4.30
2018-12-14T09:38:27.430Z,4.30
2018-12-14T09:40:55.545Z,4.30
2018-12-14T09:43:23.641Z,4.20
2018-12-14T09:45:51.723Z,4.30
2018-12-14T09:48:19.789Z,4.20
2018-12-14T09:50:48.784Z,4.20
2018-12-14T09:53:16.879Z,4.20
2018-12-14T09:55:45.005Z,4.20
2018-12-14T09:58:13.109Z,4.30
2018-12-14T10:00:41.276Z,4.40
2018-12-14T10:03:09.339Z,4.40
2018-12-14T10:05:37.414Z,4.40
2018-12-14T10:08:05.522Z,4.40
2018-12-14T10:10:33.607Z,4.50
2018-12-14T10:13:01.689Z,4.50
2018-12-14T10:15:29.746Z,4.50
2018-12-14T10:17:57.854Z,4.50
2018-12-14T10:20:25.922Z,4.50
2018-12-14T10:22:54.006Z,4.50
2018-12-14T10:25:22.090Z,4.50
2018-12-14T10:27:50.190Z,4.50
2018-12-14T10:30:18.372Z,4.50
2018-12-14T10:32:46.511Z,4.40
2018-12-14T10:35:14.571Z,4.50
2018-12-14T10:37:42.652Z,4.40
2018-12-14T10:40:11.407Z,4.40
2018-12-14T10:42:39.542Z,4.40
2018-12-14T10:45:08.909Z,4.40
2018-12-14T10:47:37.023Z,4.40
2018-12-14T10:50:05.315Z,4.40
2018-12-14T10:52:33.411Z,4.50
2018-12-14T10:55:01.589Z,4.60
2018-12-14T10:57:29.863Z,4.50
2018-12-14T10:59:57.934Z,4.50
2018-12-14T11:02:25.998Z,4.50
2018-12-14T11:04:54.088Z,4.60
2018-12-14T11:07:22.167Z,4.60
2018-12-14T11:09:50.237Z,4.60
2018-12-14T11:12:18.340Z,4.60
2018-12-14T11:14:46.498Z,4.60
2018-12-14T11:17:14.675Z,4.50
2018-12-14T11:19:42.763Z,4.50
2018-12-14T11:22:10.841Z,4.50
2018-12-14T11:24:39.564Z,4.60
2018-12-14T11:27:07.658Z,4.50
2018-12-14T11:29:35.741Z,4.50
2018-12-14T11:32:03.798Z,4.50
2018-12-14T11:34:31.909Z,4.50
2018-12-14T11:37:00.511Z,4.50
2018-12-14T11:39:28.682Z,4.50
2018-12-14T11:41:56.867Z,4.40
2018-12-14T11:44:24.944Z,4.40
2018-12-14T11:46:53.034Z,4.40
2018-12-14T11:49:21.982Z,4.40
2018-12-14T11:51:50.066Z,4.40
2018-12-14T11:54:18.158Z,4.40
2018-12-14T11:56:46.482Z,4.40
2018-12-14T11:59:14.558Z,4.40
2018-12-14T12:01:42.645Z,4.40
2018-12-14T12:04:10.772Z,4.40
2018-12-14T12:06:38.849Z,4.40
2018-12-14T12:09:08.309Z,4.40
2018-12-14T12:11:36.402Z,4.40
2018-12-14T12:14:04.826Z,4.50
2018-12-14T12:16:32.929Z,4.50
2018-12-14T12:19:01.032Z,4.50
2018-12-14T12:21:29.392Z,4.50
2018-12-14T12:23:57.460Z,4.60
2018-12-14T12:26:25.554Z,4.50
2018-12-14T12:28:53.641Z,4.50
2018-12-14T12:31:21.728Z,4.50
2018-12-14T12:33:49.851Z,4.50
2018-12-14T12:36:17.965Z,4.50
2018-12-14T12:38:46.062Z,4.50
2018-12-14T12:41:14.202Z,4.60
2018-12-14T12:43:42.279Z,4.60
2018-12-14T12:46:10.349Z,4.70
2018-12-14T12:48:38.707Z,4.70
2018-12-14T12:51:06.812Z,4.70
2018-12-14T12:53:34.903Z,4.60
2018-12-14T12:56:02.961Z,4.60
2018-12-14T12:58:31.058Z,4.70
2018-12-14T13:00:59.254Z,4.70
2018-12-14T13:03:28.532Z,4.70
2018-12-14T13:05:56.632Z,4.70
2018-12-14T13:08:24.723Z,4.70
2018-12-14T13:10:52.794Z,4.70
2018-12-14T13:13:20.883Z,4.70
2018-12-14T13:15:48.984Z,4.60
2018-12-14T13:18:17.063Z,4.60
2018-12-14T13:20:45.177Z,4.60
2018-12-14T13:23:13.270Z,4.60
2018-12-14T13:25:41.398Z,4.50
2018-12-14T13:28:09.763Z,4.50
2018-12-14T13:30:38.241Z,4.50
2018-12-14T13:33:07.073Z,4.50
2018-12-14T13:35:35.335Z,4.60
2018-12-14T13:38:03.532Z,4.60
2018-12-14T13:40:31.632Z,4.60
2018-12-14T13:42:59.777Z,4.60
2018-12-14T13:45:27.924Z,4.50
2018-12-14T13:47:56.035Z,4.50
2018-12-14T13:50:24.115Z,4.60
2018-12-14T13:52:52.206Z,4.60
2018-12-14T13:55:20.300Z,4.60
2018-12-14T13:57:48.424Z,4.60
2018-12-14T14:00:16.507Z,4.50
2018-12-14T14:02:44.602Z,4.50
2018-12-14T14:05:12.694Z,4.50
2018-12-14T14:07:40.769Z,4.50
2018-12-14T14:10:08.835Z,4.50
2018-12-14T14:12:37.846Z,4.60
2018-12-14T14:15:09.115Z,4.60
2018-12-14T14:17:37.218Z,4.60
2018-12-14T14:20:06.518Z,4.60
2018-12-14T14:22:34.735Z,4.50
2018-12-14T14:25:02.880Z,4.50
2018-12-14T14:27:30.982Z,4.50
2018-12-14T14:29:59.155Z,4.50
2018-12-14T14:32:27.208Z,4.50
2018-12-14T14:34:55.354Z,4.50
2018-12-14T14:37:23.489Z,4.50
2018-12-14T14:39:51.586Z,4.50
2018-12-14T14:42:19.682Z,4.40
2018-12-14T14:44:47.798Z,4.40
2018-12-14T14:47:15.888Z,4.40
2018-12-14T14:49:44.013Z,4.50
2018-12-14T14:52:12.093Z,4.50
2018-12-14T14:54:40.213Z,4.50
2018-12-14T14:57:08.318Z,4.50
2018-12-14T14:59:40.084Z,4.50
2018-12-14T15:02:08.158Z,4.60
2018-12-14T15:04:36.242Z,4.70
2018-12-14T15:07:04.306Z,4.80
2018-12-14T15:09:32.419Z,4.90
2018-12-14T15:12:00.492Z,5.00
2018-12-14T15:14:28.579Z,5.00
2018-12-14T15:16:56.643Z,5.10
2018-12-14T15:19:24.846Z,5.10
2018-12-14T15:21:52.912Z,5.20
2018-12-14T15:24:20.992Z,5.30
2018-12-14T15:26:49.167Z,5.30
2018-12-14T15:29:17.225Z,5.30
2018-12-14T15:31:46.825Z,5.30
2018-12-14T15:34:14.865Z,5.30
2018-12-14T15:36:42.970Z,5.30
2018-12-14T15:39:11.075Z,5.40
2018-12-14T15:41:39.183Z,5.50
2018-12-14T15:44:07.259Z,5.50
2018-12-14T15:46:35.367Z,5.50
2018-12-14T15:49:03.459Z,5.50
2018-12-14T15:51:31.546Z,5.40
2018-12-14T15:53:59.624Z,5.40
2018-12-14T15:56:27.745Z,5.40
2018-12-14T15:58:55.865Z,5.50
2018-12-14T16:01:23.953Z,5.40
2018-12-14T16:03:52.049Z,5.40
2018-12-14T16:06:20.155Z,5.40
2018-12-14T16:08:48.244Z,5.40
2018-12-14T16:11:16.315Z,5.30
2018-12-14T16:13:44.440Z,5.20
2018-12-14T16:16:12.605Z,5.30
2018-12-14T16:18:40.682Z,5.20
2018-12-14T16:21:08.779Z,5.20
2018-12-14T16:23:36.944Z,5.20
2018-12-14T16:26:05.043Z,5.20
2018-12-14T16:28:34.935Z,5.20
2018-12-14T16:31:03.050Z,5.20
2018-12-14T16:33:31.705Z,5.20
2018-12-14T16:35:59.786Z,5.20
2018-12-14T16:38:27.915Z,5.20
2018-12-14T16:40:56.001Z,5.20
2018-12-14T16:43:24.119Z,5.20
2018-12-14T16:45:52.216Z,5.20
2018-12-14T16:48:20.301Z,5.20
2018-12-14T16:50:48.485Z,5.20
2018-12-14T16:53:16.553Z,5.30
2018-12-14T16:55:44.709Z,5.20
2018-12-14T16:58:12.781Z,5.10
2018-12-14T17:00:40.945Z,5.10
2018-12-14T17:03:09.034Z,5.10
2018-12-14T17:05:37.856Z,5.10
2018-12-14T17:08:06.040Z,5.10
2018-12-14T17:10:34.142Z,5.20
2018-12-14T17:13:02.257Z,5.20
2018-12-14T17:15:33.347Z,5.30
2018-12-14T17:18:00.466Z,5.30
2018-12-14T17:20:28.584Z,5.30
2018-12-14T17:22:56.644Z,5.20
2018-12-14T17:25:24.734Z,5.10
2018-12-14T17:27:52.824Z,5.10
2018-12-14T17:30:20.914Z,5.10
2018-12-14T17:32:49.102Z,5.10
2018-12-14T17:35:17.196Z,5.00
2018-12-14T17:37:45.279Z,5.10
2018-12-14T17:40:13.478Z,5.10
2018-12-14T17:42:45.313Z,5.10
2018-12-14T17:45:13.426Z,5.10
2018-12-14T17:47:41.519Z,5.10
2018-12-14T17:50:10.207Z,5.10
2018-12-14T17:52:39.087Z,5.10
2018-12-14T17:55:07.451Z,5.10
2018-12-14T17:57:35.593Z,5.10
2018-12-14T18:00:06.454Z,5.20
2018-12-14T18:02:34.510Z,5.20
2018-12-14T18:05:02.697Z,5.20
2018-12-14T18:07:30.799Z,5.20
2018-12-14T18:09:58.905Z,5.20
2018-12-14T18:12:26.985Z,5.20
2018-12-14T18:14:55.030Z,5.20
2018-12-14T18:17:23.755Z,5.10
2018-12-14T18:19:51.881Z,5.10
2018-12-14T18:22:20.250Z,5.10
2018-12-14T18:24:48.534Z,5.10
2018-12-14T18:27:18.204Z,5.10
2018-12-14T18:29:46.302Z,5.10
2018-12-14T18:32:15.003Z,5.10
2018-12-14T18:34:43.090Z,5.10
2018-12-14T18:37:11.654Z,5.10
2018-12-14T18:39:39.750Z,5.10
2018-12-14T18:42:07.839Z,5.20
2018-12-14T18:44:35.929Z,5.20
2018-12-14T18:47:04.096Z,5.20
2018-12-14T18:49:32.191Z,5.20
2018-12-14T18:52:00.270Z,5.20
2018-12-14T18:54:28.374Z,5.20
2018-12-14T18:56:56.493Z,5.20
2018-12-14T18:59:24.851Z,5.20
2018-12-14T19:01:52.913Z,5.20
2018-12-14T19:04:21.022Z,5.20
2018-12-14T19:06:49.191Z,5.10
2018-12-14T19:09:17.253Z,5.20
2018-12-14T19:11:45.432Z,5.20
2018-12-14T19:14:13.497Z,5.20
2018-12-14T19:16:41.615Z,5.10
2018-12-14T19:19:09.735Z,5.10
2018-12-14T19:21:37.874Z,5.10
2018-12-14T19:24:05.957Z,4.90
2018-12-14T19:26:34.152Z,4.90
2018-12-14T19:29:02.305Z,4.90
2018-12-14T19:31:30.787Z,4.90
2018-12-14T19:33:58.899Z,4.90
2018-12-14T19:36:27.003Z,4.90
2018-12-14T19:38:55.403Z,4.90
2018-12-14T19:41:23.532Z,5.00
2018-12-14T19:43:51.624Z,5.00
2018-12-14T19:46:19.708Z,5.00
2018-12-14T19:48:47.859Z,5.10
2018-12-14T19:51:16.154Z,5.10
2018-12-14T19:53:44.203Z,5.10
2018-12-14T19:56:12.315Z,5.10
2018-12-14T19:58:40.430Z,5.00
2018-12-14T20:01:08.583Z,5.00
2018-12-14T20:03:38.462Z,4.90
2018-12-14T20:06:06.642Z,4.90
2018-12-14T20:08:34.724Z,4.90
2018-12-14T20:11:02.996Z,4.90
2018-12-14T20:13:31.088Z,4.90
2018-12-14T20:15:59.179Z,4.80
2018-12-14T20:18:27.279Z,4.90
2018-12-14T20:20:55.366Z,4.90
2018-12-14T20:23:23.431Z,4.90
2018-12-14T20:25:51.525Z,4.90
2018-12-14T20:28:19.626Z,4.90
2018-12-14T20:30:47.727Z,4.80
2018-12-14T20:33:16.169Z,4.70
2018-12-14T20:35:44.223Z,4.70
2018-12-14T20:38:12.314Z,4.70
2018-12-14T20:40:40.424Z,4.70
2018-12-14T20:43:08.559Z,4.60
2018-12-14T20:45:36.643Z,4.60
2018-12-14T20:48:04.720Z,4.70
2018-12-14T20:50:32.816Z,4.70
2018-12-14T20:53:00.923Z,4.60
2018-12-14T20:55:29.024Z,4.80
2018-12-14T20:57:57.143Z,4.80
2018-12-14T21:00:25.337Z,4.80
2018-12-14T21:02:53.453Z,4.90
2018-12-14T21:05:21.624Z,4.90
2018-12-14T21:07:49.732Z,4.90
2018-12-14T21:10:17.788Z,4.90
2018-12-14T21:12:46.276Z,4.90
2018-12-14T21:15:14.357Z,4.90
2018-12-14T21:17:42.461Z,5.00
2018-12-14T21:20:10.541Z,5.00
2018-12-14T21:22:38.643Z,5.00
2018-12-14T21:25:07.414Z,5.00
2018-12-14T21:27:35.481Z,4.90
2018-12-14T21:30:05.752Z,4.90
2018-12-14T21:32:33.953Z,4.90
2018-12-14T21:35:02.143Z,5.00
2018-12-14T21:37:30.235Z,4.90
2018-12-14T21:39:58.382Z,5.00
2018-12-14T21:42:26.441Z,5.00
2018-12-14T21:44:54.550Z,5.00
2018-12-14T21:47:22.662Z,5.00
2018-12-14T21:49:50.775Z,5.00
2018-12-14T21:52:20.117Z,5.00
2018-12-14T21:54:48.270Z,5.00
2018-12-14T21:57:16.415Z,5.00
2018-12-14T21:59:44.523Z,5.00
2018-12-14T22:02:12.757Z,5.00
2018-12-14T22:04:40.908Z,5.00
2018-12-14T22:07:08.971Z,5.00
2018-12-14T22:09:37.097Z,4.90
2018-12-14T22:12:05.240Z,5.00
2018-12-14T22:14:33.370Z,4.90
2018-12-14T22:17:01.420Z,4.90
2018-12-14T22:19:29.652Z,4.90
2018-12-14T22:22:01.498Z,4.90
2018-12-14T22:24:29.639Z,4.80
2018-12-14T22:26:58.416Z,4.80
2018-12-14T22:29:26.500Z,4.80
2018-12-14T22:31:54.633Z,4.90
2018-12-14T22:34:23.683Z,4.90
2018-12-14T22:36:52.942Z,4.90
2018-12-14T22:39:22.898Z,4.80
2018-12-14T22:41:51.020Z,4.80
2018-12-14T22:44:21.596Z,4.80
2018-12-14T22:46:49.277Z,4.80
2018-12-14T22:49:17.961Z,4.70
2018-12-14T22:51:46.067Z,4.70
2018-12-14T22:54:14.153Z,4.70
2018-12-14T22:56:42.243Z,4.70
2018-12-14T22:59:10.334Z,4.70
2018-12-14T23:01:38.398Z,4.70
2018-12-14T23:04:06.576Z,4.70
2018-12-14T23:06:34.651Z,4.70
2018-12-14T23:09:04.303Z,4.70
2018-12-14T23:11:32.399Z,4.70
2018-12-14T23:14:00.470Z,4.80
2018-12-14T23:16:29.287Z,4.70
2018-12-14T23:18:57.382Z,4.70
2018-12-14T23:21:25.506Z,4.70
2018-12-14T23:23:53.599Z,4.70
2018-12-14T23:26:21.683Z,4.70
2018-12-14T23:28:49.851Z,4.70
2018-12-14T23:31:17.934Z,4.70
2018-12-14T23:33:46.101Z,4.70
2018-12-14T23:36:14.202Z,4.70
2018-12-14T23:38:42.323Z,4.70
2018-12-14T23:41:10.430Z,4.70
2018-12-14T23:43:38.478Z,4.60
2018-12-14T23:46:06.577Z,4.60
2018-12-14T23:48:34.674Z,4.60
2018-12-14T23:51:02.746Z,4.60
2018-12-14T23:53:30.849Z,4.60
2018-12-14T23:55:58.926Z,4.70
2018-12-14T23:58:27.002Z,4.70
